Impacts METAR Board
IDs:

KFLL - Ft Lauderdale-Hollyw, FL, US

Updated at: 0600 UTC 24 Jan 2019
Potential Impact None Slight Moderate High
Time 23/18Z 23/19Z 23/20Z 23/21Z 23/22Z 23/23Z 24/00Z 24/01Z 24/02Z 24/03Z 24/04Z 24/05Z 24/06Z
Temp76 76 77 76 76 75 75 75 75 75 75 76 76
Dewpt66 66 67 68 67 68 68 68 69 69 69 70 71
Altim30.18 30.14 30.13 30.12 30.10 30.09 30.08 30.08 30.06 30.05 30.04 30.00 29.97
VIS10 10 10 10 10 10 10 10 10 10 10 10 10
CIG34 37 42 38 65 50 32 46 30 32 28 27 27
CoverOVCOVCOVCOVCOVCOVCOVCOVCOVCOVCOVCOVCOVC
FltCatVFRVFRVFRVFRVFRVFRVFRVFRMVFRVFRMVFRMVFRMVFR
WX--------------------------
WDir130120130120120130130140140150160150150
WSpd23 18 14 14 17 15 18 13 15 16 16 22 21
WGst26 27 -- -- -- 23 -- -- -- -- 27 29 30
Raw hourly METARs
KFLL 231753Z AUTO 13023G26KT 10SM BKN034 OVC041 24/19 A3018 RMK AO2 PK WND 13028/1721 SLP220 T02440189 10250 20222 58016
KFLL 231853Z AUTO 12018G27KT 10SM BKN037 OVC046 24/19 A3014 RMK AO2 PK WND 12029/1828 SLP206 T02440189
KFLL 231953Z AUTO 13014KT 10SM BKN042 OVC060 25/19 A3013 RMK AO2 PK WND 12027/1859 SLP201 T02500194
KFLL 232053Z AUTO 12014KT 10SM FEW027 BKN038 OVC045 24/20 A3012 RMK AO2 SLP198 T02440200 56022
KFLL 232153Z AUTO 12017KT 10SM SCT043 BKN065 OVC080 24/19 A3010 RMK AO2 SLP191 T02440194
KFLL 232253Z AUTO 13015G23KT 10SM FEW039 BKN050 OVC070 24/20 A3009 RMK AO2 SLP188 T02390200
KFLL 232353Z AUTO 13018KT 10SM FEW025 BKN032 OVC060 24/20 A3008 RMK AO2 SLP184 T02390200 10256 20239 55007
KFLL 240053Z AUTO 14013KT 10SM OVC046 24/20 A3008 RMK AO2 SLP184 T02390200
KFLL 240153Z AUTO 14015KT 10SM BKN030 OVC036 24/21 A3006 RMK AO2 SLP179 T02390206
KFLL 240253Z AUTO 15016KT 10SM FEW027 BKN032 OVC039 24/21 A3005 RMK AO2 RAB08E10 SLP174 P0000 60000 T02390206 58010
KFLL 240353Z AUTO 16016G27KT 10SM OVC028 24/21 A3004 RMK AO2 PK WND 14027/0258 SLP172 T02390206
KFLL 240453Z AUTO 15022G29KT 10SM OVC027 24/21 A3000 RMK AO2 PK WND 13029/0447 SLP159 T02440211 402560206
KFLL 240553Z AUTO 15021G30KT 10SM OVC027 24/22 A2997 RMK AO2 PK WND 15032/0508 SLP149 60000 T02440217 10244 20233 58025



Page loaded:  06:11 UTC  |   10:11 PM Pacific  |   11:11 PM Mountain  |   12:11 AM Central  |   01:11 AM Eastern

 

ADVISORIES

FORECASTS

FORECASTS

OBSERVATIONS

USER TOOLS

ABOUT US